Time;durP1;ratioP1;P1;durP2;ratioP2;P2;SDS_P1;SDS_P2;PMS_P1;PMS_P2;Temp;Humidity;BMP_temperature;BMP_pressure;BME280_temperature;BME280_humidity;BME280_pressure;Samples;Min_cycle;Max_cycle;Signal;HPM_P1;HPM_P2
2021/03/16 00:00:51;;;;;;;20.58;3.78;;;;;;;;;;5044712;28;20198;-52
2021/03/16 00:03:18;;;;;;;16.33;3.20;;;;;;;;;;4914788;28;3695784;-54
2021/03/16 00:05:44;;;;;;;13.88;4.30;;;;;;;;;;5044392;28;20172;-54
2021/03/16 00:08:11;;;;;;;12.57;3.88;;;;;;;;;;5043923;28;20211;-55
2021/03/16 00:10:42;;;;;;;21.90;5.85;;;;;;;;;;5042794;28;20185;-53
2021/03/16 00:13:09;;;;;;;12.68;2.92;;;;;;;;;;5044272;28;20160;-54
2021/03/16 00:15:41;;;;;;;17.13;4.40;;;;;;;;;;5040753;28;20175;-55
2021/03/16 00:18:13;;;;;;;13.40;3.40;;;;;;;;;;5044482;28;20211;-53
2021/03/16 00:20:39;;;;;;;11.07;3.00;;;;;;;;;;5043424;28;20183;-54
2021/03/16 00:23:07;;;;;;;9.98;3.17;;;;;;;;;;5043494;28;20185;-54
2021/03/16 00:25:33;;;;;;;17.63;5.97;;;;;;;;;;5043065;28;20174;-55
2021/03/16 00:27:58;;;;;;;13.57;3.20;;;;;;;;;;5042899;28;20199;-54
2021/03/16 00:30:25;;;;;;;12.30;3.17;;;;;;;;;;5042089;28;20409;-55
2021/03/16 00:32:51;;;;;;;12.00;2.53;;;;;;;;;;5043302;28;20406;-53
2021/03/16 00:35:17;;;;;;;16.25;2.75;;;;;;;;;;5043168;28;20198;-53
2021/03/16 00:37:43;;;;;;;16.30;3.10;;;;;;;;;;5042470;28;20172;-53
2021/03/16 00:40:10;;;;;;;11.50;3.57;;;;;;;;;;5043390;28;20418;-54
2021/03/16 00:42:36;;;;;;;12.80;2.88;;;;;;;;;;5043207;28;20529;-55
2021/03/16 00:45:02;;;;;;;12.57;2.38;;;;;;;;;;5039279;28;20783;-55
2021/03/16 00:47:28;;;;;;;14.85;3.42;;;;;;;;;;5042954;28;20207;-55
2021/03/16 00:49:54;;;;;;;19.08;3.80;;;;;;;;;;5041323;28;20782;-54
2021/03/16 00:52:20;;;;;;;13.60;3.33;;;;;;;;;;5042884;28;20180;-55
2021/03/16 00:54:46;;;;;;;12.70;3.38;;;;;;;;;;5043436;28;20474;-55
2021/03/16 00:57:12;;;;;;;15.10;3.30;;;;;;;;;;5042798;28;20175;-53
2021/03/16 00:59:38;;;;;;;10.32;2.85;;;;;;;;;;5042173;28;20442;-55
2021/03/16 01:02:04;;;;;;;19.40;4.13;;;;;;;;;;5041489;28;20214;-54
2021/03/16 01:04:30;;;;;;;8.93;2.67;;;;;;;;;;5043032;28;20402;-54
2021/03/16 01:06:56;;;;;;;13.35;3.50;;;;;;;;;;5042926;28;20410;-54
2021/03/16 01:09:28;;;;;;;8.40;3.27;;;;;;;;;;5042514;28;20291;-55
2021/03/16 01:12:05;;;;;;;16.80;3.92;;;;;;;;;;5043806;28;20405;-55
2021/03/16 01:14:57;;;;;;;16.02;3.92;;;;;;;;;;5038873;28;20174;-53
2021/03/16 01:17:28;;;;;;;19.48;4.68;;;;;;;;;;5043094;28;20167;-55
2021/03/16 01:19:54;;;;;;;16.02;2.85;;;;;;;;;;5042742;28;20209;-53
2021/03/16 01:22:23;;;;;;;11.73;3.17;;;;;;;;;;5042516;28;20171;-54
2021/03/16 01:24:58;;;;;;;9.10;2.95;;;;;;;;;;5042661;28;20494;-54
2021/03/16 01:27:33;;;;;;;18.15;3.97;;;;;;;;;;5042965;28;20172;-54
2021/03/16 01:29:59;;;;;;;8.23;2.75;;;;;;;;;;5042305;28;20214;-55
2021/03/16 01:32:25;;;;;;;9.87;3.23;;;;;;;;;;5042094;28;20164;-55
2021/03/16 01:34:51;;;;;;;15.73;2.85;;;;;;;;;;5041613;28;20408;-55
2021/03/16 01:37:46;;;;;;;13.70;3.90;;;;;;;;;;5043377;28;20159;-53
2021/03/16 01:40:28;;;;;;;16.23;3.63;;;;;;;;;;5034930;28;20489;-54
2021/03/16 01:43:06;;;;;;;9.98;3.22;;;;;;;;;;5042822;28;20227;-54
2021/03/16 01:45:32;;;;;;;20.73;3.45;;;;;;;;;;5040952;28;20561;-53
2021/03/16 01:47:58;;;;;;;15.13;4.17;;;;;;;;;;5043218;28;20195;-55
2021/03/16 01:50:24;;;;;;;11.98;3.65;;;;;;;;;;5043267;28;20452;-54
2021/03/16 01:52:54;;;;;;;10.07;2.97;;;;;;;;;;5043125;28;20174;-55
2021/03/16 01:55:49;;;;;;;9.10;2.90;;;;;;;;;;5042639;28;20160;-54
2021/03/16 01:58:38;;;;;;;12.00;4.07;;;;;;;;;;5041136;28;20210;-54
2021/03/16 02:01:07;;;;;;;10.88;4.78;;;;;;;;;;5043039;28;20171;-52
2021/03/16 02:03:39;;;;;;;12.95;3.80;;;;;;;;;;5042680;28;20241;-54
2021/03/16 02:06:11;;;;;;;12.57;3.30;;;;;;;;;;5042774;28;20182;-53
2021/03/16 02:08:56;;;;;;;9.95;3.53;;;;;;;;;;5043243;28;20249;-56
2021/03/16 02:11:39;;;;;;;17.27;4.45;;;;;;;;;;5043175;28;20693;-53
2021/03/16 02:14:07;;;;;;;15.07;2.40;;;;;;;;;;5043451;28;20228;-54
2021/03/16 02:16:36;;;;;;;11.07;2.90;;;;;;;;;;5040999;28;20186;-56
2021/03/16 02:19:09;;;;;;;14.35;4.00;;;;;;;;;;5042517;28;20265;-54
2021/03/16 02:21:41;;;;;;;12.65;4.78;;;;;;;;;;5041999;28;20178;-52
2021/03/16 02:24:28;;;;;;;9.98;3.80;;;;;;;;;;5042555;28;20163;-55
2021/03/16 02:27:08;;;;;;;11.93;3.90;;;;;;;;;;5042342;28;20242;-55
2021/03/16 02:30:02;;;;;;;11.98;3.85;;;;;;;;;;5043084;28;20258;-56
2021/03/16 02:32:39;;;;;;;11.07;2.63;;;;;;;;;;5043247;28;20186;-55
2021/03/16 02:35:15;;;;;;;7.25;3.15;;;;;;;;;;5041126;28;20247;-54
2021/03/16 02:37:42;;;;;;;16.98;2.95;;;;;;;;;;5043259;28;20167;-52
2021/03/16 02:40:22;;;;;;;;;;;;;;;;;;;;;
2021/03/16 02:42:57;;;;;;;17.40;3.17;;;;;;;;;;5042871;28;20234;-54
2021/03/16 02:45:23;;;;;;;12.93;2.80;;;;;;;;;;5042786;28;20170;-53
2021/03/16 02:47:50;;;;;;;13.20;2.83;;;;;;;;;;5038779;28;20268;-54
2021/03/16 02:50:19;;;;;;;17.33;2.78;;;;;;;;;;5013163;28;20367;-53
2021/03/16 02:52:45;;;;;;;13.98;3.30;;;;;;;;;;5003532;28;20824;-54
2021/03/16 02:55:15;;;;;;;13.30;3.20;;;;;;;;;;5002739;28;20229;-53
2021/03/16 02:57:44;;;;;;;9.75;3.33;;;;;;;;;;5003383;28;20236;-54
2021/03/16 03:00:33;;;;;;;;;;;;;;;;;;;;;
2021/03/16 03:03:27;;;;;;;19.70;3.22;;;;;;;;;;5000315;28;20275;-55
2021/03/16 03:05:51;;;;;;;12.52;2.92;;;;;;;;;;5001222;28;20185;-53
2021/03/16 03:08:19;;;;;;;5.43;1.92;;;;;;;;;;5002625;28;20220;-55
2021/03/16 03:10:45;;;;;;;17.38;3.78;;;;;;;;;;5002505;28;20176;-52
2021/03/16 03:13:16;;;;;;;10.77;3.60;;;;;;;;;;5001853;28;20197;-52
2021/03/16 03:15:42;;;;;;;22.00;3.45;;;;;;;;;;5002764;28;20423;-51
2021/03/16 03:18:11;;;;;;;8.63;3.30;;;;;;;;;;5033277;28;20202;-53
2021/03/16 03:20:45;;;;;;;17.33;2.60;;;;;;;;;;5041994;28;20490;-54
2021/03/16 03:23:28;;;;;;;12.57;3.00;;;;;;;;;;5044900;28;20198;-55
2021/03/16 03:26:15;;;;;;;8.85;2.80;;;;;;;;;;5046201;28;20174;-52
2021/03/16 03:28:44;;;;;;;17.48;3.05;;;;;;;;;;5044673;28;20203;-53
2021/03/16 03:31:11;;;;;;;9.45;2.78;;;;;;;;;;5044884;28;20257;-53
2021/03/16 03:33:40;;;;;;;12.80;3.80;;;;;;;;;;5044495;28;20190;-53
2021/03/16 03:36:08;;;;;;;13.52;2.67;;;;;;;;;;5044752;28;20174;-52
2021/03/16 03:38:40;;;;;;;9.70;2.90;;;;;;;;;;5044514;28;20203;-52
2021/03/16 03:41:07;;;;;;;14.73;3.13;;;;;;;;;;5045545;28;20247;-53
2021/03/16 03:43:39;;;;;;;8.43;2.70;;;;;;;;;;5044750;28;20221;-53
2021/03/16 03:46:16;;;;;;;10.35;2.80;;;;;;;;;;5041957;28;20268;-54
2021/03/16 03:48:45;;;;;;;11.27;2.92;;;;;;;;;;5045181;28;20203;-53
2021/03/16 03:51:12;;;;;;;10.90;2.75;;;;;;;;;;5044836;28;20198;-54
2021/03/16 03:53:49;;;;;;;11.13;2.80;;;;;;;;;;5044343;28;20175;-54
2021/03/16 03:56:19;;;;;;;16.50;3.83;;;;;;;;;;5045244;28;20182;-53
2021/03/16 03:59:07;;;;;;;16.98;3.08;;;;;;;;;;5044075;28;20205;-53
2021/03/16 04:01:36;;;;;;;21.13;4.38;;;;;;;;;;5044441;28;20278;-54
2021/03/16 04:04:05;;;;;;;10.93;4.22;;;;;;;;;;5044626;28;20179;-54
2021/03/16 04:06:32;;;;;;;8.73;4.07;;;;;;;;;;5045836;28;20170;-54
2021/03/16 04:08:58;;;;;;;22.80;3.40;;;;;;;;;;5044459;28;20203;-51
2021/03/16 04:11:28;;;;;;;10.77;3.22;;;;;;;;;;5042592;28;20635;-55
2021/03/16 04:14:14;;;;;;;23.23;2.63;;;;;;;;;;5044926;28;20180;-54
2021/03/16 04:16:47;;;;;;;7.03;2.85;;;;;;;;;;5045213;28;20178;-55
2021/03/16 04:19:13;;;;;;;11.85;3.53;;;;;;;;;;5045111;28;20214;-54
2021/03/16 04:21:40;;;;;;;7.68;2.83;;;;;;;;;;5044067;28;20210;-52
2021/03/16 04:24:06;;;;;;;15.38;3.33;;;;;;;;;;5044250;28;20167;-53
2021/03/16 04:26:35;;;;;;;13.43;4.20;;;;;;;;;;5044641;28;20293;-52
2021/03/16 04:29:20;;;;;;;;;;;;;;;;;;;;;
2021/03/16 04:31:46;;;;;;;13.98;3.97;;;;;;;;;;5043041;28;20284;-54
2021/03/16 04:34:12;;;;;;;19.58;3.97;;;;;;;;;;5042426;28;20175;-53
2021/03/16 04:36:38;;;;;;;12.10;3.40;;;;;;;;;;5044070;28;20245;-53
2021/03/16 04:39:04;;;;;;;12.87;3.97;;;;;;;;;;5044330;28;20422;-52
2021/03/16 04:41:31;;;;;;;14.68;3.28;;;;;;;;;;5039109;28;20549;-53
2021/03/16 04:44:00;;;;;;;17.85;3.33;;;;;;;;;;5042197;28;20202;-55
2021/03/16 04:46:26;;;;;;;11.23;3.35;;;;;;;;;;5044165;28;20698;-55
2021/03/16 04:48:52;;;;;;;6.23;2.60;;;;;;;;;;5043846;28;20203;-55
2021/03/16 04:51:18;;;;;;;11.33;2.80;;;;;;;;;;5043978;28;20410;-55
2021/03/16 04:53:44;;;;;;;15.35;3.10;;;;;;;;;;5043984;28;20407;-55
2021/03/16 04:56:10;;;;;;;10.68;2.67;;;;;;;;;;5042926;28;20170;-53
2021/03/16 04:58:36;;;;;;;10.70;2.90;;;;;;;;;;5043721;28;20201;-54
2021/03/16 05:01:02;;;;;;;15.10;3.20;;;;;;;;;;5043740;28;20171;-55
2021/03/16 05:03:28;;;;;;;13.45;2.90;;;;;;;;;;5043385;28;20469;-56
2021/03/16 05:05:57;;;;;;;13.57;3.17;;;;;;;;;;5043062;28;20179;-55
2021/03/16 05:08:23;;;;;;;13.65;3.90;;;;;;;;;;5043418;28;20540;-52
2021/03/16 05:10:49;;;;;;;6.07;2.45;;;;;;;;;;5040508;28;20188;-53
2021/03/16 05:13:15;;;;;;;6.43;2.42;;;;;;;;;;5042071;28;20186;-55
2021/03/16 05:15:41;;;;;;;16.70;3.03;;;;;;;;;;5042672;28;20166;-52
2021/03/16 05:18:17;;;;;;;10.50;2.75;;;;;;;;;;5043049;28;20214;-52
2021/03/16 05:20:43;;;;;;;5.35;2.72;;;;;;;;;;5042727;28;20568;-54
2021/03/16 05:23:12;;;;;;;8.98;2.40;;;;;;;;;;5043149;28;20168;-53
2021/03/16 05:25:38;;;;;;;9.77;2.90;;;;;;;;;;5043004;28;20909;-54
2021/03/16 05:28:04;;;;;;;8.68;2.35;;;;;;;;;;5042942;28;20207;-55
2021/03/16 05:30:30;;;;;;;5.88;2.65;;;;;;;;;;5042747;28;20250;-55
2021/03/16 05:32:57;;;;;;;7.50;3.00;;;;;;;;;;5042483;28;20813;-56
2021/03/16 05:35:23;;;;;;;10.27;3.80;;;;;;;;;;5041929;28;20491;-55
2021/03/16 05:37:49;;;;;;;8.18;2.85;;;;;;;;;;5041351;28;20233;-53
2021/03/16 05:40:36;;;;;;;11.98;2.70;;;;;;;;;;5038612;28;20199;-53
2021/03/16 05:43:11;;;;;;;13.88;2.83;;;;;;;;;;5042228;28;20349;-55
2021/03/16 05:45:38;;;;;;;8.00;2.72;;;;;;;;;;5041435;28;20171;-53
2021/03/16 05:48:06;;;;;;;12.32;3.30;;;;;;;;;;5041406;28;20206;-53
2021/03/16 05:50:32;;;;;;;9.90;2.72;;;;;;;;;;5042604;28;20188;-53
2021/03/16 05:53:01;;;;;;;7.13;2.78;;;;;;;;;;5042454;28;20167;-56
2021/03/16 05:55:28;;;;;;;14.40;3.00;;;;;;;;;;5041298;28;20228;-54
2021/03/16 05:57:54;;;;;;;10.20;2.88;;;;;;;;;;5041707;28;20193;-53
2021/03/16 06:00:20;;;;;;;9.73;2.65;;;;;;;;;;5042013;28;20171;-53
2021/03/16 06:02:46;;;;;;;9.98;3.00;;;;;;;;;;5042886;28;20283;-53
2021/03/16 06:05:12;;;;;;;11.33;2.70;;;;;;;;;;5041643;28;20176;-54
2021/03/16 06:07:38;;;;;;;9.88;3.10;;;;;;;;;;5041478;28;20948;-53
2021/03/16 06:10:05;;;;;;;11.02;3.95;;;;;;;;;;5041237;28;20190;-54
2021/03/16 06:12:31;;;;;;;15.02;4.28;;;;;;;;;;5038071;28;20179;-55
2021/03/16 06:14:58;;;;;;;15.27;3.80;;;;;;;;;;5041674;28;20174;-53
2021/03/16 06:17:26;;;;;;;12.85;3.65;;;;;;;;;;5042507;28;20169;-55
2021/03/16 06:19:52;;;;;;;17.17;3.63;;;;;;;;;;5042435;28;20214;-53
2021/03/16 06:22:19;;;;;;;8.90;3.20;;;;;;;;;;5041869;28;20167;-54
2021/03/16 06:24:46;;;;;;;17.42;3.50;;;;;;;;;;5042073;28;20464;-53
2021/03/16 06:27:24;;;;;;;7.80;2.85;;;;;;;;;;5041446;28;20163;-52
2021/03/16 06:29:51;;;;;;;7.97;3.28;;;;;;;;;;5041980;28;20195;-53
2021/03/16 06:32:32;;;;;;;8.55;2.50;;;;;;;;;;5041851;28;20198;-53
2021/03/16 06:35:01;;;;;;;14.82;3.88;;;;;;;;;;5042323;28;20163;-53
2021/03/16 06:37:37;;;;;;;7.05;2.90;;;;;;;;;;5042686;28;20174;-53
2021/03/16 06:40:04;;;;;;;6.75;3.25;;;;;;;;;;5040873;28;20721;-54
2021/03/16 06:42:41;;;;;;;11.90;3.30;;;;;;;;;;5038671;28;20180;-55
2021/03/16 06:45:08;;;;;;;5.97;2.60;;;;;;;;;;5042435;28;20179;-54
2021/03/16 06:47:40;;;;;;;13.25;3.60;;;;;;;;;;5041798;28;20163;-55
2021/03/16 06:50:27;;;;;;;12.40;3.00;;;;;;;;;;5042363;28;20286;-54
2021/03/16 06:52:59;;;;;;;15.90;3.72;;;;;;;;;;5042964;28;20210;-53
2021/03/16 06:55:29;;;;;;;8.05;3.10;;;;;;;;;;5041734;28;20216;-52
2021/03/16 06:58:34;;;;;;;;;;;;;;;;;;;;;
2021/03/16 07:00:59;;;;;;;8.00;3.15;;;;;;;;;;5044152;28;20191;-53
2021/03/16 07:03:25;;;;;;;8.30;3.22;;;;;;;;;;5047382;28;20266;-54
2021/03/16 07:06:18;;;;;;;16.08;3.75;;;;;;;;;;5046479;28;20218;-54
2021/03/16 07:08:54;;;;;;;10.13;3.03;;;;;;;;;;5046881;28;20792;-53
2021/03/16 07:11:35;;;;;;;13.95;3.25;;;;;;;;;;5046215;28;20193;-53
2021/03/16 07:14:03;;;;;;;11.20;3.38;;;;;;;;;;5046400;28;20176;-55
2021/03/16 07:16:30;;;;;;;8.18;3.55;;;;;;;;;;5046198;28;20172;-53
2021/03/16 07:18:56;;;;;;;8.90;2.75;;;;;;;;;;5045855;28;20194;-51
2021/03/16 07:21:38;;;;;;;8.60;2.25;;;;;;;;;;5046606;28;20176;-53
2021/03/16 07:24:07;;;;;;;5.07;2.65;;;;;;;;;;5046430;28;20231;-54
2021/03/16 07:29:38;;;;;;;3.92;2.03;;;;;;;;;;5046199;28;20242;-54
2021/03/16 07:32:07;;;;;;;5.00;2.27;;;;;;;;;;5047298;28;20245;-52
2021/03/16 07:34:39;;;;;;;6.40;2.40;;;;;;;;;;5046437;28;20423;-56
2021/03/16 07:37:07;;;;;;;12.63;2.50;;;;;;;;;;5045868;28;20451;-53
2021/03/16 07:39:33;;;;;;;6.70;2.43;;;;;;;;;;5045360;28;20426;-54
2021/03/16 07:41:59;;;;;;;6.20;2.20;;;;;;;;;;5043839;28;20409;-55
2021/03/16 07:44:25;;;;;;;15.73;3.07;;;;;;;;;;5028286;28;20490;-54
2021/03/16 07:47:02;;;;;;;7.20;2.80;;;;;;;;;;5025550;28;20442;-55
2021/03/16 07:49:32;;;;;;;6.90;3.07;;;;;;;;;;5024294;28;20540;-53
2021/03/16 07:51:59;;;;;;;6.73;2.73;;;;;;;;;;5024796;28;20429;-53
2021/03/16 07:54:32;;;;;;;7.87;1.97;;;;;;;;;;5025806;28;20399;-54
2021/03/16 07:56:59;;;;;;;11.63;3.07;;;;;;;;;;5024470;28;20417;-53
2021/03/16 07:59:31;;;;;;;8.53;2.97;;;;;;;;;;5023908;28;20423;-54
2021/03/16 08:01:57;;;;;;;5.30;2.93;;;;;;;;;;5024146;28;20433;-54
2021/03/16 08:04:33;;;;;;;9.17;2.40;;;;;;;;;;5024865;28;20415;-53
2021/03/16 08:06:59;;;;;;;4.90;3.40;;;;;;;;;;5020877;28;20442;-51
2021/03/16 08:09:25;;;;;;;6.30;2.73;;;;;;;;;;5019801;28;20525;-51
2021/03/16 08:11:52;;;;;;;4.30;2.40;;;;;;;;;;5023259;28;20505;-54
2021/03/16 08:14:29;;;;;;;6.07;1.93;;;;;;;;;;5037670;28;21015;-53
2021/03/16 08:16:59;;;;;;;9.53;2.60;;;;;;;;;;5043924;28;20971;-53
2021/03/16 08:19:40;;;;;;;3.30;1.90;;;;;;;;;;5045352;28;20508;-52
2021/03/16 08:22:06;;;;;;;8.23;2.17;;;;;;;;;;5045292;28;20410;-55
2021/03/16 08:24:39;;;;;;;6.10;2.50;;;;;;;;;;5043337;28;20402;-55
2021/03/16 08:27:17;;;;;;;6.23;2.77;;;;;;;;;;5043877;28;20421;-52
2021/03/16 08:29:50;;;;;;;5.07;2.73;;;;;;;;;;5043521;28;20468;-55
2021/03/16 08:32:18;;;;;;;9.20;2.47;;;;;;;;;;5043589;28;20536;-54
2021/03/16 08:34:45;;;;;;;6.93;2.37;;;;;;;;;;5043036;28;20490;-54
2021/03/16 08:37:27;;;;;;;10.80;2.83;;;;;;;;;;5044374;28;20448;-54
2021/03/16 08:39:56;;;;;;;7.17;2.80;;;;;;;;;;5044492;28;20432;-53
2021/03/16 08:42:23;;;;;;;12.47;4.10;;;;;;;;;;5043305;28;20424;-53
2021/03/16 08:44:50;;;;;;;10.60;4.50;;;;;;;;;;5044416;28;20552;-54
2021/03/16 08:47:18;;;;;;;6.83;3.67;;;;;;;;;;5044471;28;20427;-54
2021/03/16 08:49:47;;;;;;;11.90;4.10;;;;;;;;;;5045188;28;20546;-53
2021/03/16 08:52:20;;;;;;;9.10;4.20;;;;;;;;;;5044717;28;20479;-54
2021/03/16 08:54:46;;;;;;;9.00;2.70;;;;;;;;;;5044795;28;21145;-53
2021/03/16 08:57:35;;;;;;;;;;;;;;;;;;;;;
2021/03/16 09:00:25;;;;;;;4.50;3.17;;;;;;;;;;5041924;28;20491;-53
2021/03/16 09:02:51;;;;;;;8.60;2.77;;;;;;;;;;5043843;28;20462;-53
2021/03/16 09:05:19;;;;;;;4.73;1.73;;;;;;;;;;5044404;28;20444;-56
2021/03/16 09:07:45;;;;;;;20.27;3.17;;;;;;;;;;5043991;28;20404;-56
2021/03/16 09:10:11;;;;;;;4.97;1.70;;;;;;;;;;5043523;28;20451;-54
2021/03/16 09:12:41;;;;;;;8.83;1.77;;;;;;;;;;5039082;28;20430;-55
2021/03/16 09:15:07;;;;;;;4.07;1.53;;;;;;;;;;5042680;28;20438;-54
2021/03/16 09:17:34;;;;;;;4.67;1.87;;;;;;;;;;5042399;28;20515;-53
2021/03/16 09:20:09;;;;;;;2.73;1.70;;;;;;;;;;5041766;28;20429;-52
2021/03/16 09:22:35;;;;;;;8.23;1.60;;;;;;;;;;5039538;28;20408;-51
2021/03/16 09:25:01;;;;;;;7.20;2.30;;;;;;;;;;5041422;28;20398;-52
2021/03/16 09:27:27;;;;;;;6.33;2.43;;;;;;;;;;5039137;28;20449;-50
2021/03/16 09:29:53;;;;;;;3.47;2.00;;;;;;;;;;5039547;28;20441;-51
2021/03/16 09:32:20;;;;;;;4.47;2.10;;;;;;;;;;5038879;28;20807;-51
2021/03/16 09:34:47;;;;;;;7.73;2.20;;;;;;;;;;5039417;28;20385;-52
2021/03/16 09:37:18;;;;;;;11.40;2.20;;;;;;;;;;5041111;28;20396;-52
2021/03/16 09:39:51;;;;;;;4.27;2.10;;;;;;;;;;5041589;28;20422;-52
2021/03/16 09:42:17;;;;;;;5.37;2.10;;;;;;;;;;5041489;28;20422;-54
2021/03/16 09:44:44;;;;;;;7.40;2.50;;;;;;;;;;5041415;28;20412;-52
2021/03/16 09:47:11;;;;;;;5.57;2.00;;;;;;;;;;5038097;28;20432;-53
2021/03/16 09:49:41;;;;;;;5.57;1.80;;;;;;;;;;5042377;28;20468;-55
2021/03/16 09:52:11;;;;;;;6.87;2.20;;;;;;;;;;5041559;28;20412;-51
2021/03/16 09:54:38;;;;;;;9.23;2.67;;;;;;;;;;5042625;28;20755;-52
2021/03/16 09:57:09;;;;;;;8.03;3.00;;;;;;;;;;5034478;28;20399;-54
2021/03/16 09:59:36;;;;;;;5.30;2.00;;;;;;;;;;5030619;28;20425;-54
2021/03/16 10:02:02;;;;;;;7.93;2.03;;;;;;;;;;5030209;28;20430;-53
2021/03/16 10:04:29;;;;;;;7.53;1.93;;;;;;;;;;5031310;28;20914;-54
2021/03/16 10:06:58;;;;;;;4.20;1.73;;;;;;;;;;5031579;28;20409;-54
2021/03/16 10:09:26;;;;;;;4.33;1.60;;;;;;;;;;5032694;28;20467;-54
2021/03/16 10:11:53;;;;;;;1.53;1.43;;;;;;;;;;5032196;28;20406;-55
2021/03/16 10:14:31;;;;;;;3.47;1.60;;;;;;;;;;5032244;28;20429;-50
2021/03/16 10:16:57;;;;;;;4.13;1.67;;;;;;;;;;5035021;28;20477;-50
2021/03/16 10:19:24;;;;;;;3.77;1.90;;;;;;;;;;5031785;28;20426;-49
2021/03/16 10:21:50;;;;;;;4.50;2.10;;;;;;;;;;5031682;28;20417;-54
2021/03/16 10:24:29;;;;;;;5.97;2.70;;;;;;;;;;5031860;28;20405;-55
2021/03/16 10:26:56;;;;;;;3.73;2.53;;;;;;;;;;5031335;28;20441;-50
2021/03/16 10:29:22;;;;;;;5.37;2.77;;;;;;;;;;5030560;28;20581;-50
2021/03/16 10:31:48;;;;;;;10.63;2.97;;;;;;;;;;5031911;28;20410;-53
2021/03/16 10:34:14;;;;;;;4.40;3.30;;;;;;;;;;5035096;28;20402;-53
2021/03/16 10:36:41;;;;;;;4.80;2.77;;;;;;;;;;5034952;28;20456;-55
2021/03/16 10:39:07;;;;;;;8.63;2.90;;;;;;;;;;5034395;28;20570;-51
2021/03/16 10:41:33;;;;;;;5.97;2.80;;;;;;;;;;5025190;28;20499;-52
2021/03/16 10:43:59;;;;;;;6.10;2.50;;;;;;;;;;5026398;28;20440;-52
2021/03/16 10:46:25;;;;;;;3.87;2.40;;;;;;;;;;5034647;28;20402;-52
2021/03/16 10:48:51;;;;;;;4.83;2.20;;;;;;;;;;5034062;28;20562;-54
2021/03/16 10:51:19;;;;;;;3.50;2.00;;;;;;;;;;5032266;28;20788;-52
2021/03/16 10:53:45;;;;;;;2.50;2.30;;;;;;;;;;5033504;28;21190;-53
2021/03/16 10:56:11;;;;;;;5.13;3.10;;;;;;;;;;5034255;28;20429;-53
2021/03/16 10:58:37;;;;;;;6.80;2.83;;;;;;;;;;5033837;28;20443;-53
2021/03/16 11:01:02;;;;;;;4.80;2.40;;;;;;;;;;5030350;28;20422;-50
2021/03/16 11:03:28;;;;;;;9.00;2.33;;;;;;;;;;5034143;28;20993;-49
2021/03/16 11:05:54;;;;;;;5.10;2.23;;;;;;;;;;5034210;28;20408;-49
2021/03/16 11:08:20;;;;;;;6.73;2.40;;;;;;;;;;5032452;28;20465;-50
2021/03/16 11:10:46;;;;;;;3.17;2.50;;;;;;;;;;5035770;28;20457;-49
2021/03/16 11:13:13;;;;;;;6.37;3.90;;;;;;;;;;5037460;28;20828;-51
2021/03/16 11:15:39;;;;;;;5.70;4.00;;;;;;;;;;5038048;28;20410;-50
2021/03/16 11:18:05;;;;;;;4.10;3.47;;;;;;;;;;5036457;28;20882;-50
2021/03/16 11:20:31;;;;;;;4.90;3.60;;;;;;;;;;5037988;28;20412;-50
2021/03/16 11:22:57;;;;;;;4.13;3.83;;;;;;;;;;5036327;28;20440;-50
2021/03/16 11:25:23;;;;;;;4.37;3.90;;;;;;;;;;5037640;28;21079;-50
2021/03/16 11:27:49;;;;;;;4.67;3.50;;;;;;;;;;5036721;28;20541;-51
2021/03/16 11:30:15;;;;;;;4.17;3.73;;;;;;;;;;5016386;28;20408;-51
2021/03/16 11:32:41;;;;;;;6.03;3.20;;;;;;;;;;5014727;28;20440;-54
2021/03/16 11:35:08;;;;;;;4.50;3.37;;;;;;;;;;5015247;28;20236;-51
2021/03/16 11:37:34;;;;;;;5.20;3.47;;;;;;;;;;5016059;28;20417;-52
2021/03/16 11:40:00;;;;;;;3.60;3.10;;;;;;;;;;5014744;28;20835;-54
2021/03/16 11:42:26;;;;;;;5.93;3.20;;;;;;;;;;5013702;28;20437;-54
2021/03/16 11:44:52;;;;;;;4.70;2.90;;;;;;;;;;5029525;28;20960;-49
2021/03/16 11:47:18;;;;;;;4.40;2.27;;;;;;;;;;5032082;28;20401;-49
2021/03/16 11:49:45;;;;;;;7.30;2.90;;;;;;;;;;5032710;28;20889;-49
2021/03/16 11:52:11;;;;;;;2.60;2.07;;;;;;;;;;5032200;28;20763;-49
2021/03/16 11:54:37;;;;;;;3.60;2.17;;;;;;;;;;5033192;28;20411;-49
2021/03/16 11:57:03;;;;;;;3.77;2.40;;;;;;;;;;5033101;28;20746;-49
2021/03/16 11:59:29;;;;;;;2.63;2.40;;;;;;;;;;5032923;28;20426;-48
2021/03/16 12:01:55;;;;;;;5.10;3.13;;;;;;;;;;5032997;28;20941;-49
2021/03/16 12:04:22;;;;;;;4.47;2.73;;;;;;;;;;5033072;28;20905;-50
2021/03/16 12:06:48;;;;;;;5.73;3.83;;;;;;;;;;5033123;28;20402;-53
2021/03/16 12:09:14;;;;;;;7.13;2.80;;;;;;;;;;5028268;28;20994;-50
2021/03/16 12:11:40;;;;;;;4.50;2.93;;;;;;;;;;5033086;28;20409;-49
2021/03/16 12:14:06;;;;;;;3.80;2.87;;;;;;;;;;5033027;28;20402;-49
2021/03/16 12:16:32;;;;;;;3.13;2.83;;;;;;;;;;5031709;28;20416;-49
2021/03/16 12:18:58;;;;;;;5.37;2.87;;;;;;;;;;5032726;28;20418;-49
2021/03/16 12:21:24;;;;;;;5.43;2.50;;;;;;;;;;5032988;28;20893;-49
2021/03/16 12:23:50;;;;;;;9.83;3.43;;;;;;;;;;5029444;28;20861;-49
2021/03/16 12:26:16;;;;;;;3.37;2.70;;;;;;;;;;5032955;28;20374;-49
2021/03/16 12:28:42;;;;;;;6.80;2.60;;;;;;;;;;5032456;28;20469;-49
2021/03/16 12:31:08;;;;;;;6.07;2.63;;;;;;;;;;5032620;28;20407;-49
2021/03/16 12:33:34;;;;;;;4.90;2.83;;;;;;;;;;5032700;28;20906;-49
2021/03/16 12:36:00;;;;;;;4.43;2.90;;;;;;;;;;5032808;28;20447;-49
2021/03/16 12:38:26;;;;;;;6.00;2.53;;;;;;;;;;5032116;28;20432;-49
2021/03/16 12:40:52;;;;;;;9.50;2.73;;;;;;;;;;5029015;28;20794;-49
2021/03/16 12:43:20;;;;;;;3.00;2.33;;;;;;;;;;5032307;28;20413;-50
2021/03/16 12:45:46;;;;;;;5.00;3.30;;;;;;;;;;5032664;28;20396;-49
2021/03/16 12:48:12;;;;;;;3.17;2.70;;;;;;;;;;5032167;28;20459;-53
2021/03/16 12:50:38;;;;;;;3.20;2.90;;;;;;;;;;5032761;28;20392;-54
2021/03/16 12:53:04;;;;;;;3.27;2.97;;;;;;;;;;5032618;28;20421;-54
2021/03/16 12:55:31;;;;;;;4.53;3.03;;;;;;;;;;5032796;28;20409;-51
2021/03/16 12:57:57;;;;;;;4.50;2.17;;;;;;;;;;5035905;28;20417;-51
2021/03/16 13:00:23;;;;;;;1.97;1.60;;;;;;;;;;5035660;28;20441;-51
2021/03/16 13:02:49;;;;;;;1.93;1.83;;;;;;;;;;5032102;28;20465;-49
2021/03/16 13:05:15;;;;;;;4.50;2.20;;;;;;;;;;5033940;28;20406;-51
2021/03/16 13:07:41;;;;;;;4.07;2.33;;;;;;;;;;5035973;28;20761;-60
2021/03/16 13:10:08;;;;;;;4.53;2.73;;;;;;;;;;5034311;28;20450;-50
2021/03/16 13:12:33;;;;;;;5.43;2.80;;;;;;;;;;5032854;28;20916;-49
2021/03/16 13:14:59;;;;;;;2.77;2.50;;;;;;;;;;5031893;28;20401;-50
2021/03/16 13:17:26;;;;;;;2.80;2.33;;;;;;;;;;5031653;28;20414;-50
2021/03/16 13:19:51;;;;;;;2.60;2.50;;;;;;;;;;5031996;28;20423;-50
2021/03/16 13:22:17;;;;;;;3.60;3.30;;;;;;;;;;5031371;28;20586;-49
2021/03/16 13:24:43;;;;;;;3.10;1.93;;;;;;;;;;5035662;28;20469;-49
2021/03/16 13:27:11;;;;;;;2.37;2.17;;;;;;;;;;5031131;28;20434;-51
2021/03/16 13:29:37;;;;;;;1.90;1.80;;;;;;;;;;5033567;28;20487;-50
2021/03/16 13:32:03;;;;;;;3.87;2.23;;;;;;;;;;5033276;28;20413;-50
2021/03/16 13:34:29;;;;;;;6.80;3.13;;;;;;;;;;5033652;28;20414;-51
2021/03/16 13:36:55;;;;;;;3.23;2.53;;;;;;;;;;5031611;28;20500;-50
2021/03/16 13:39:21;;;;;;;3.90;3.60;;;;;;;;;;5031111;28;20463;-51
2021/03/16 13:41:47;;;;;;;3.37;3.10;;;;;;;;;;5031243;28;20417;-53
2021/03/16 13:44:13;;;;;;;6.23;3.30;;;;;;;;;;5031300;28;20398;-51
2021/03/16 13:46:39;;;;;;;4.97;3.30;;;;;;;;;;5031244;28;20815;-52
2021/03/16 13:49:05;;;;;;;3.40;3.10;;;;;;;;;;5030763;28;20485;-53
2021/03/16 13:51:31;;;;;;;5.50;2.93;;;;;;;;;;5031132;28;20394;-50
2021/03/16 13:53:57;;;;;;;7.20;3.63;;;;;;;;;;5028078;28;20426;-50
2021/03/16 13:56:22;;;;;;;6.63;3.53;;;;;;;;;;5031021;28;20403;-51
2021/03/16 13:58:48;;;;;;;3.40;2.93;;;;;;;;;;5030740;28;20432;-53
2021/03/16 14:01:14;;;;;;;5.10;3.40;;;;;;;;;;5030903;28;20412;-52
2021/03/16 14:03:40;;;;;;;3.73;3.30;;;;;;;;;;5031021;28;20509;-50
2021/03/16 14:06:06;;;;;;;3.83;3.40;;;;;;;;;;5030584;28;20459;-50
2021/03/16 14:08:32;;;;;;;4.77;3.80;;;;;;;;;;5030566;28;20476;-50
2021/03/16 14:10:59;;;;;;;5.37;3.70;;;;;;;;;;5030972;28;20497;-50
2021/03/16 14:13:25;;;;;;;5.63;3.50;;;;;;;;;;5030789;28;20398;-53
2021/03/16 14:15:51;;;;;;;4.30;3.90;;;;;;;;;;5030881;28;20421;-54
2021/03/16 14:18:17;;;;;;;7.50;3.97;;;;;;;;;;5031013;28;20429;-53
2021/03/16 14:20:43;;;;;;;6.80;4.40;;;;;;;;;;5017089;28;20415;-51
2021/03/16 14:23:09;;;;;;;3.33;3.03;;;;;;;;;;5013317;28;20407;-54
2021/03/16 14:25:35;;;;;;;2.80;2.60;;;;;;;;;;5035029;28;20498;-53
2021/03/16 14:28:02;;;;;;;3.40;2.80;;;;;;;;;;5014188;28;20462;-53
2021/03/16 14:30:29;;;;;;;3.10;2.40;;;;;;;;;;5015749;28;20479;-55
2021/03/16 14:32:55;;;;;;;2.93;2.60;;;;;;;;;;5014436;28;20909;-50
2021/03/16 14:35:21;;;;;;;2.60;2.20;;;;;;;;;;5014725;28;20816;-61
2021/03/16 14:37:47;;;;;;;5.03;2.30;;;;;;;;;;5013949;28;20484;-51
2021/03/16 14:40:13;;;;;;;2.87;2.60;;;;;;;;;;5013312;28;20447;-52
2021/03/16 14:42:40;;;;;;;4.70;2.20;;;;;;;;;;5012425;28;20416;-52
2021/03/16 14:45:06;;;;;;;4.30;2.20;;;;;;;;;;5011352;28;20407;-53
2021/03/16 14:47:32;;;;;;;2.70;2.00;;;;;;;;;;5010642;28;20412;-52
2021/03/16 14:49:58;;;;;;;2.27;1.90;;;;;;;;;;5010483;28;20460;-52
2021/03/16 14:52:24;;;;;;;3.00;2.40;;;;;;;;;;5010919;28;20459;-52
2021/03/16 14:54:50;;;;;;;2.93;2.07;;;;;;;;;;5019457;28;20436;-52
2021/03/16 14:57:16;;;;;;;3.97;2.00;;;;;;;;;;5030380;28;20495;-52